sensor_id;sensor_type;location;lat;lon;timestamp;pressure;altitude;pressure_sealevel;temperature;humidity
50123;BME280;36021;48.670;6.184;2022-09-02T00:01:54;98821.53;;;21.47;100.00
50123;BME280;36021;48.670;6.184;2022-09-02T00:04:22;98825.84;;;21.41;100.00
50123;BME280;36021;48.670;6.184;2022-09-02T00:06:50;98820.75;;;21.27;100.00
50123;BME280;36021;48.670;6.184;2022-09-02T00:09:17;98813.47;;;21.22;100.00
50123;BME280;36021;48.670;6.184;2022-09-02T00:11:46;98819.75;;;21.16;100.00
50123;BME280;36021;48.670;6.184;2022-09-02T00:14:21;98820.03;;;21.11;100.00
50123;BME280;36021;48.670;6.184;2022-09-02T00:16:48;98820.41;;;21.28;100.00
50123;BME280;36021;48.670;6.184;2022-09-02T00:19:23;98824.19;;;21.17;100.00
50123;BME280;36021;48.670;6.184;2022-09-02T00:21:50;98824.44;;;21.31;100.00
50123;BME280;36021;48.670;6.184;2022-09-02T00:24:16;98820.97;;;21.38;100.00
50123;BME280;36021;48.670;6.184;2022-09-02T00:26:43;98818.50;;;21.33;100.00
50123;BME280;36021;48.670;6.184;2022-09-02T00:29:10;98818.56;;;21.36;100.00
50123;BME280;36021;48.670;6.184;2022-09-02T00:31:37;98816.63;;;21.40;100.00
50123;BME280;36021;48.670;6.184;2022-09-02T00:34:04;98815.91;;;21.43;100.00
50123;BME280;36021;48.670;6.184;2022-09-02T00:36:31;98814.69;;;21.44;100.00
50123;BME280;36021;48.670;6.184;2022-09-02T00:38:57;98818.38;;;21.48;100.00
50123;BME280;36021;48.670;6.184;2022-09-02T00:41:25;98814.56;;;21.37;100.00
50123;BME280;36021;48.670;6.184;2022-09-02T00:44:01;98814.56;;;21.37;100.00
50123;BME280;36021;48.670;6.184;2022-09-02T00:46:29;98817.28;;;21.34;100.00
50123;BME280;36021;48.670;6.184;2022-09-02T00:49:02;98815.91;;;21.24;100.00
50123;BME280;36021;48.670;6.184;2022-09-02T00:51:35;98822.56;;;21.16;100.00
50123;BME280;36021;48.670;6.184;2022-09-02T00:54:04;98816.03;;;20.93;100.00
50123;BME280;36021;48.670;6.184;2022-09-02T00:56:35;98810.94;;;20.79;100.00
50123;BME280;36021;48.670;6.184;2022-09-02T00:59:01;98811.50;;;20.69;100.00
50123;BME280;36021;48.670;6.184;2022-09-02T01:01:27;98815.66;;;20.75;100.00
50123;BME280;36021;48.670;6.184;2022-09-02T01:03:53;98818.91;;;20.77;100.00
50123;BME280;36021;48.670;6.184;2022-09-02T01:06:21;98809.53;;;20.89;100.00
50123;BME280;36021;48.670;6.184;2022-09-02T01:08:53;98812.75;;;20.71;100.00
50123;BME280;36021;48.670;6.184;2022-09-02T01:11:22;98809.84;;;20.84;100.00
50123;BME280;36021;48.670;6.184;2022-09-02T01:13:48;98811.81;;;20.64;100.00
50123;BME280;36021;48.670;6.184;2022-09-02T01:16:26;98809.44;;;20.66;100.00
50123;BME280;36021;48.670;6.184;2022-09-02T01:18:54;98809.75;;;20.61;100.00
50123;BME280;36021;48.670;6.184;2022-09-02T01:21:22;98810.44;;;20.73;100.00
50123;BME280;36021;48.670;6.184;2022-09-02T01:23:49;98801.88;;;20.66;100.00
50123;BME280;36021;48.670;6.184;2022-09-02T01:26:17;98809.66;;;20.57;100.00
50123;BME280;36021;48.670;6.184;2022-09-02T01:28:44;98812.84;;;20.75;100.00
50123;BME280;36021;48.670;6.184;2022-09-02T01:31:10;98809.22;;;20.74;100.00
50123;BME280;36021;48.670;6.184;2022-09-02T01:33:36;98808.56;;;20.81;100.00
50123;BME280;36021;48.670;6.184;2022-09-02T01:36:03;98810.84;;;20.75;100.00
50123;BME280;36021;48.670;6.184;2022-09-02T01:38:30;98813.16;;;20.35;100.00
50123;BME280;36021;48.670;6.184;2022-09-02T01:40:56;98814.47;;;20.57;100.00
50123;BME280;36021;48.670;6.184;2022-09-02T01:43:24;98803.16;;;20.53;100.00
50123;BME280;36021;48.670;6.184;2022-09-02T01:45:53;98804.34;;;20.52;100.00
50123;BME280;36021;48.670;6.184;2022-09-02T01:48:21;98806.94;;;20.42;100.00
50123;BME280;36021;48.670;6.184;2022-09-02T01:50:50;98804.47;;;20.40;100.00
50123;BME280;36021;48.670;6.184;2022-09-02T01:53:16;98801.69;;;20.40;100.00
50123;BME280;36021;48.670;6.184;2022-09-02T01:55:44;98806.47;;;20.24;100.00
50123;BME280;36021;48.670;6.184;2022-09-02T01:58:11;98799.88;;;20.16;100.00
50123;BME280;36021;48.670;6.184;2022-09-02T02:00:37;98806.38;;;20.20;100.00
50123;BME280;36021;48.670;6.184;2022-09-02T02:03:03;98804.69;;;20.00;100.00
50123;BME280;36021;48.670;6.184;2022-09-02T02:05:30;98812.53;;;20.10;100.00
50123;BME280;36021;48.670;6.184;2022-09-02T02:07:56;98812.72;;;20.17;100.00
50123;BME280;36021;48.670;6.184;2022-09-02T02:10:22;98810.91;;;20.25;100.00
50123;BME280;36021;48.670;6.184;2022-09-02T02:12:48;98814.88;;;20.24;100.00
50123;BME280;36021;48.670;6.184;2022-09-02T02:15:18;98808.00;;;20.21;100.00
50123;BME280;36021;48.670;6.184;2022-09-02T02:17:45;98800.88;;;20.24;100.00
50123;BME280;36021;48.670;6.184;2022-09-02T02:20:12;98802.75;;;20.20;100.00
50123;BME280;36021;48.670;6.184;2022-09-02T02:22:41;98804.69;;;20.00;100.00
50123;BME280;36021;48.670;6.184;2022-09-02T02:25:08;98803.06;;;20.15;100.00
50123;BME280;36021;48.670;6.184;2022-09-02T02:27:35;98807.28;;;20.24;100.00
50123;BME280;36021;48.670;6.184;2022-09-02T02:30:06;98799.53;;;20.18;100.00
50123;BME280;36021;48.670;6.184;2022-09-02T02:32:32;98802.31;;;20.18;100.00
50123;BME280;36021;48.670;6.184;2022-09-02T02:35:02;98802.31;;;20.18;100.00
50123;BME280;36021;48.670;6.184;2022-09-02T02:37:29;98802.97;;;20.27;100.00
50123;BME280;36021;48.670;6.184;2022-09-02T02:39:55;98807.38;;;20.12;100.00
50123;BME280;36021;48.670;6.184;2022-09-02T02:42:21;98805.16;;;20.02;100.00
50123;BME280;36021;48.670;6.184;2022-09-02T02:44:46;98801.53;;;19.86;100.00
50123;BME280;36021;48.670;6.184;2022-09-02T02:47:12;98804.34;;;20.02;100.00
50123;BME280;36021;48.670;6.184;2022-09-02T02:49:41;98803.88;;;20.00;100.00
50123;BME280;36021;48.670;6.184;2022-09-02T02:52:09;98800.66;;;19.66;100.00
50123;BME280;36021;48.670;6.184;2022-09-02T02:54:36;98799.75;;;19.78;100.00
50123;BME280;36021;48.670;6.184;2022-09-02T02:57:04;98802.00;;;19.72;100.00
50123;BME280;36021;48.670;6.184;2022-09-02T02:59:30;98800.38;;;19.71;100.00
50123;BME280;36021;48.670;6.184;2022-09-02T03:01:56;98809.38;;;19.49;100.00
50123;BME280;36021;48.670;6.184;2022-09-02T03:04:22;98804.94;;;19.48;100.00
50123;BME280;36021;48.670;6.184;2022-09-02T03:06:49;98798.69;;;19.39;100.00
50123;BME280;36021;48.670;6.184;2022-09-02T03:09:16;98810.81;;;19.43;100.00
50123;BME280;36021;48.670;6.184;2022-09-02T03:11:42;98803.69;;;19.46;100.00
50123;BME280;36021;48.670;6.184;2022-09-02T03:14:08;98803.75;;;19.34;100.00
50123;BME280;36021;48.670;6.184;2022-09-02T03:16:34;98805.56;;;19.42;100.00
50123;BME280;36021;48.670;6.184;2022-09-02T03:19:01;98807.41;;;19.38;100.00
50123;BME280;36021;48.670;6.184;2022-09-02T03:21:29;98807.56;;;19.41;100.00
50123;BME280;36021;48.670;6.184;2022-09-02T03:23:55;98801.53;;;19.55;100.00
50123;BME280;36021;48.670;6.184;2022-09-02T03:26:23;98810.56;;;19.64;100.00
50123;BME280;36021;48.670;6.184;2022-09-02T03:28:53;98811.03;;;19.66;100.00
50123;BME280;36021;48.670;6.184;2022-09-02T03:31:21;98806.31;;;19.70;100.00
50123;BME280;36021;48.670;6.184;2022-09-02T03:33:50;98802.88;;;19.76;100.00
50123;BME280;36021;48.670;6.184;2022-09-02T03:36:40;98792.59;;;19.81;100.00
50123;BME280;36021;48.670;6.184;2022-09-02T03:39:07;98792.94;;;19.63;100.00
50123;BME280;36021;48.670;6.184;2022-09-02T03:41:33;98792.69;;;19.53;100.00
50123;BME280;36021;48.670;6.184;2022-09-02T03:43:59;98790.78;;;19.41;100.00
50123;BME280;36021;48.670;6.184;2022-09-02T03:46:28;98787.03;;;19.37;100.00
50123;BME280;36021;48.670;6.184;2022-09-02T03:48:54;98787.84;;;19.50;100.00
50123;BME280;36021;48.670;6.184;2022-09-02T03:51:21;98786.53;;;19.47;100.00
50123;BME280;36021;48.670;6.184;2022-09-02T03:53:48;98781.88;;;19.51;100.00
50123;BME280;36021;48.670;6.184;2022-09-02T03:56:16;98782.59;;;19.48;100.00
50123;BME280;36021;48.670;6.184;2022-09-02T03:58:43;98785.78;;;19.35;100.00
50123;BME280;36021;48.670;6.184;2022-09-02T04:01:16;98784.81;;;19.27;100.00
50123;BME280;36021;48.670;6.184;2022-09-02T04:03:43;98786.78;;;19.27;100.00
50123;BME280;36021;48.670;6.184;2022-09-02T04:06:10;98782.16;;;19.34;100.00
50123;BME280;36021;48.670;6.184;2022-09-02T04:08:39;98786.78;;;19.27;100.00
50123;BME280;36021;48.670;6.184;2022-09-02T04:11:07;98780.63;;;19.21;100.00
50123;BME280;36021;48.670;6.184;2022-09-02T04:13:33;98784.44;;;19.29;100.00
50123;BME280;36021;48.670;6.184;2022-09-02T04:16:12;98774.13;;;19.17;100.00
50123;BME280;36021;48.670;6.184;2022-09-02T04:18:39;98779.00;;;19.20;100.00
50123;BME280;36021;48.670;6.184;2022-09-02T04:21:06;98781.09;;;19.23;100.00
50123;BME280;36021;48.670;6.184;2022-09-02T04:23:35;98774.31;;;19.24;100.00
50123;BME280;36021;48.670;6.184;2022-09-02T04:26:05;98778.94;;;19.32;100.00
50123;BME280;36021;48.670;6.184;2022-09-02T04:28:33;98784.09;;;19.30;100.00
50123;BME280;36021;48.670;6.184;2022-09-02T04:31:03;98781.09;;;19.23;100.00
50123;BME280;36021;48.670;6.184;2022-09-02T04:33:29;98779.13;;;18.96;100.00
50123;BME280;36021;48.670;6.184;2022-09-02T04:35:55;98777.47;;;18.95;100.00
50123;BME280;36021;48.670;6.184;2022-09-02T04:38:22;98779.22;;;18.99;100.00
50123;BME280;36021;48.670;6.184;2022-09-02T04:40:49;98783.06;;;18.95;100.00
50123;BME280;36021;48.670;6.184;2022-09-02T04:43:16;98778.69;;;18.82;100.00
50123;BME280;36021;48.670;6.184;2022-09-02T04:45:44;98789.94;;;18.69;100.00
50123;BME280;36021;48.670;6.184;2022-09-02T04:48:12;98785.59;;;18.72;100.00
50123;BME280;36021;48.670;6.184;2022-09-02T04:50:40;98781.56;;;18.69;100.00
50123;BME280;36021;48.670;6.184;2022-09-02T04:53:06;98776.78;;;18.70;100.00
50123;BME280;36021;48.670;6.184;2022-09-02T04:55:32;98782.25;;;18.66;100.00
50123;BME280;36021;48.670;6.184;2022-09-02T04:57:58;98782.50;;;18.49;100.00
50123;BME280;36021;48.670;6.184;2022-09-02T05:00:26;98785.56;;;18.44;100.00
50123;BME280;36021;48.670;6.184;2022-09-02T05:02:53;98775.22;;;18.45;100.00
50123;BME280;36021;48.670;6.184;2022-09-02T05:05:20;98785.53;;;18.56;100.00
50123;BME280;36021;48.670;6.184;2022-09-02T05:07:46;98775.09;;;18.53;100.00
50123;BME280;36021;48.670;6.184;2022-09-02T05:10:12;98778.75;;;18.69;100.00
50123;BME280;36021;48.670;6.184;2022-09-02T05:12:41;98785.31;;;18.61;100.00
50123;BME280;36021;48.670;6.184;2022-09-02T05:15:08;98781.09;;;18.67;100.00
50123;BME280;36021;48.670;6.184;2022-09-02T05:17:35;98778.53;;;18.62;100.00
50123;BME280;36021;48.670;6.184;2022-09-02T05:20:03;98780.66;;;18.53;100.00
50123;BME280;36021;48.670;6.184;2022-09-02T05:22:32;98779.63;;;18.58;100.00
50123;BME280;36021;48.670;6.184;2022-09-02T05:25:00;98778.81;;;18.57;100.00
50123;BME280;36021;48.670;6.184;2022-09-02T05:27:27;98769.72;;;18.60;100.00
50123;BME280;36021;48.670;6.184;2022-09-02T05:29:56;98771.03;;;18.39;100.00
50123;BME280;36021;48.670;6.184;2022-09-02T05:32:25;98773.56;;;18.44;100.00
50123;BME280;36021;48.670;6.184;2022-09-02T05:34:54;98771.34;;;18.49;100.00
50123;BME280;36021;48.670;6.184;2022-09-02T05:37:21;98773.22;;;18.57;100.00
50123;BME280;36021;48.670;6.184;2022-09-02T05:39:47;98773.81;;;18.51;100.00
50123;BME280;36021;48.670;6.184;2022-09-02T05:42:15;98775.53;;;18.43;100.00
50123;BME280;36021;48.670;6.184;2022-09-02T05:44:43;98778.59;;;18.50;100.00
50123;BME280;36021;48.670;6.184;2022-09-02T05:47:10;98780.22;;;18.51;100.00
50123;BME280;36021;48.670;6.184;2022-09-02T05:49:37;98778.91;;;18.61;100.00
50123;BME280;36021;48.670;6.184;2022-09-02T05:52:07;98772.84;;;18.59;100.00
50123;BME280;36021;48.670;6.184;2022-09-02T05:54:40;98776.56;;;18.63;100.00
50123;BME280;36021;48.670;6.184;2022-09-02T05:57:11;98770.66;;;18.64;100.00
50123;BME280;36021;48.670;6.184;2022-09-02T05:59:42;98771.69;;;18.60;100.00
50123;BME280;36021;48.670;6.184;2022-09-02T06:02:13;98774.50;;;18.60;100.00
50123;BME280;36021;48.670;6.184;2022-09-02T06:04:41;98776.69;;;18.66;100.00
50123;BME280;36021;48.670;6.184;2022-09-02T06:07:09;98776.47;;;18.59;100.00
50123;BME280;36021;48.670;6.184;2022-09-02T06:09:35;98780.19;;;18.63;100.00
50123;BME280;36021;48.670;6.184;2022-09-02T06:12:01;98773.22;;;18.45;100.00
50123;BME280;36021;48.670;6.184;2022-09-02T06:14:30;98774.41;;;18.44;100.00
50123;BME280;36021;48.670;6.184;2022-09-02T06:16:58;98770.34;;;18.42;100.00
50123;BME280;36021;48.670;6.184;2022-09-02T06:19:35;98768.34;;;18.54;100.00
50123;BME280;36021;48.670;6.184;2022-09-02T06:22:03;98764.03;;;18.45;100.00
50123;BME280;36021;48.670;6.184;2022-09-02T06:24:31;98766.22;;;18.63;100.00
50123;BME280;36021;48.670;6.184;2022-09-02T06:27:02;98760.19;;;18.49;100.00
50123;BME280;36021;48.670;6.184;2022-09-02T06:29:28;98759.69;;;18.71;100.00
50123;BME280;36021;48.670;6.184;2022-09-02T06:31:54;98761.59;;;18.83;100.00
50123;BME280;36021;48.670;6.184;2022-09-02T06:34:23;98764.41;;;18.83;100.00
50123;BME280;36021;48.670;6.184;2022-09-02T06:36:52;98759.44;;;18.77;100.00
50123;BME280;36021;48.670;6.184;2022-09-02T06:39:21;98755.47;;;18.78;100.00
50123;BME280;36021;48.670;6.184;2022-09-02T06:41:48;98758.00;;;18.83;100.00
50123;BME280;36021;48.670;6.184;2022-09-02T06:44:17;98759.31;;;19.01;100.00
50123;BME280;36021;48.670;6.184;2022-09-02T06:46:46;98765.16;;;18.96;100.00
50123;BME280;36021;48.670;6.184;2022-09-02T06:49:14;98757.69;;;19.00;100.00
50123;BME280;36021;48.670;6.184;2022-09-02T06:51:45;98755.56;;;18.81;100.00
50123;BME280;36021;48.670;6.184;2022-09-02T06:54:15;98757.38;;;18.89;100.00
50123;BME280;36021;48.670;6.184;2022-09-02T06:56:42;98756.25;;;19.06;100.00
50123;BME280;36021;48.670;6.184;2022-09-02T06:59:09;98753.28;;;19.14;100.00
50123;BME280;36021;48.670;6.184;2022-09-02T07:01:45;98757.72;;;19.31;100.00
50123;BME280;36021;48.670;6.184;2022-09-02T07:04:15;98757.53;;;19.24;100.00
50123;BME280;36021;48.670;6.184;2022-09-02T07:07:03;98758.34;;;19.24;100.00
50123;BME280;36021;48.670;6.184;2022-09-02T07:09:31;98757.47;;;19.36;100.00
50123;BME280;36021;48.670;6.184;2022-09-02T07:12:04;98762.69;;;19.22;100.00
50123;BME280;36021;48.670;6.184;2022-09-02T07:14:39;98754.69;;;19.20;100.00
50123;BME280;36021;48.670;6.184;2022-09-02T07:17:11;98757.28;;;19.13;100.00
50123;BME280;36021;48.670;6.184;2022-09-02T07:19:43;98763.22;;;19.27;100.00
50123;BME280;36021;48.670;6.184;2022-09-02T07:22:10;98753.28;;;19.42;100.00
50123;BME280;36021;48.670;6.184;2022-09-02T07:24:40;98743.03;;;19.34;100.00
50123;BME280;36021;48.670;6.184;2022-09-02T07:27:07;98749.19;;;19.40;100.00
50123;BME280;36021;48.670;6.184;2022-09-02T07:29:36;98748.94;;;19.60;100.00
50123;BME280;36021;48.670;6.184;2022-09-02T07:32:03;98745.41;;;19.63;100.00
50123;BME280;36021;48.670;6.184;2022-09-02T07:34:31;98748.56;;;19.77;100.00
50123;BME280;36021;48.670;6.184;2022-09-02T07:36:58;98744.88;;;19.89;100.00
50123;BME280;36021;48.670;6.184;2022-09-02T07:39:23;98746.00;;;20.04;100.00
50123;BME280;36021;48.670;6.184;2022-09-02T07:41:50;98734.81;;;20.04;100.00
50123;BME280;36021;48.670;6.184;2022-09-02T07:44:20;98735.16;;;20.18;100.00
50123;BME280;36021;48.670;6.184;2022-09-02T07:46:47;98732.34;;;20.18;100.00
50123;BME280;36021;48.670;6.184;2022-09-02T07:49:16;98742.72;;;20.33;100.00
50123;BME280;36021;48.670;6.184;2022-09-02T07:51:45;98739.34;;;20.43;100.00
50123;BME280;36021;48.670;6.184;2022-09-02T07:54:15;98734.91;;;20.42;100.00
50123;BME280;36021;48.670;6.184;2022-09-02T07:56:42;98737.88;;;20.49;100.00
50123;BME280;36021;48.670;6.184;2022-09-02T07:59:09;98731.50;;;20.68;100.00
50123;BME280;36021;48.670;6.184;2022-09-02T08:01:36;98736.13;;;20.79;100.00
50123;BME280;36021;48.670;6.184;2022-09-02T08:04:02;98737.28;;;20.78;100.00
50123;BME280;36021;48.670;6.184;2022-09-02T08:06:31;98738.47;;;20.97;100.00
50123;BME280;36021;48.670;6.184;2022-09-02T08:08:57;98739.56;;;21.11;100.00
50123;BME280;36021;48.670;6.184;2022-09-02T08:11:23;98736.63;;;21.23;100.00
50123;BME280;36021;48.670;6.184;2022-09-02T08:13:50;98731.38;;;21.22;100.00
50123;BME280;36021;48.670;6.184;2022-09-02T08:16:18;98736.22;;;21.48;100.00
50123;BME280;36021;48.670;6.184;2022-09-02T08:18:43;98735.75;;;21.65;100.00
50123;BME280;36021;48.670;6.184;2022-09-02T08:21:09;98738.34;;;21.77;100.00
50123;BME280;36021;48.670;6.184;2022-09-02T08:23:35;98744.50;;;21.86;100.00
50123;BME280;36021;48.670;6.184;2022-09-02T08:26:01;98738.03;;;22.05;100.00
50123;BME280;36021;48.670;6.184;2022-09-02T08:28:28;98726.56;;;22.17;100.00
50123;BME280;36021;48.670;6.184;2022-09-02T08:30:56;98724.38;;;22.33;100.00
50123;BME280;36021;48.670;6.184;2022-09-02T08:33:22;98729.28;;;22.40;100.00
50123;BME280;36021;48.670;6.184;2022-09-02T08:35:48;98725.78;;;22.46;100.00
50123;BME280;36021;48.670;6.184;2022-09-02T08:38:14;98720.19;;;22.50;100.00
50123;BME280;36021;48.670;6.184;2022-09-02T08:40:40;98721.94;;;22.61;100.00
50123;BME280;36021;48.670;6.184;2022-09-02T08:43:34;98720.97;;;22.47;100.00
50123;BME280;36021;48.670;6.184;2022-09-02T08:46:05;98714.94;;;22.48;100.00
50123;BME280;36021;48.670;6.184;2022-09-02T08:48:50;98705.53;;;22.63;100.00
50123;BME280;36021;48.670;6.184;2022-09-02T08:51:23;98711.34;;;22.77;100.00
50123;BME280;36021;48.670;6.184;2022-09-02T08:54:12;98711.09;;;22.90;100.00
50123;BME280;36021;48.670;6.184;2022-09-02T08:56:40;98711.25;;;23.04;100.00
50123;BME280;36021;48.670;6.184;2022-09-02T08:59:08;98708.00;;;23.02;100.00
50123;BME280;36021;48.670;6.184;2022-09-02T09:01:43;98710.50;;;23.07;100.00
50123;BME280;36021;48.670;6.184;2022-09-02T09:04:17;98705.63;;;23.04;100.00
50123;BME280;36021;48.670;6.184;2022-09-02T09:12:21;98711.84;;;23.60;100.00
50123;BME280;36021;48.670;6.184;2022-09-02T09:15:07;98702.66;;;23.70;100.00
50123;BME280;36021;48.670;6.184;2022-09-02T09:17:46;98699.94;;;23.81;100.00
50123;BME280;36021;48.670;6.184;2022-09-02T09:20:19;98692.28;;;23.78;100.00
50123;BME280;36021;48.670;6.184;2022-09-02T09:22:47;98687.16;;;23.91;100.00
50123;BME280;36021;48.670;6.184;2022-09-02T09:25:16;98686.44;;;24.04;100.00
50123;BME280;36021;48.670;6.184;2022-09-02T09:27:42;98686.50;;;24.15;100.00
50123;BME280;36021;48.670;6.184;2022-09-02T09:30:11;98686.56;;;24.22;100.00
50123;BME280;36021;48.670;6.184;2022-09-02T09:32:57;98686.63;;;24.32;100.00
50123;BME280;36021;48.670;6.184;2022-09-02T09:35:26;98681.09;;;24.50;100.00
50123;BME280;36021;48.670;6.184;2022-09-02T09:37:54;98681.16;;;24.71;100.00
50123;BME280;36021;48.670;6.184;2022-09-02T09:40:27;98683.69;;;24.83;100.00
50123;BME280;36021;48.670;6.184;2022-09-02T09:43:10;98680.38;;;24.74;100.00
50123;BME280;36021;48.670;6.184;2022-09-02T09:45:45;98675.63;;;24.93;100.00
50123;BME280;36021;48.670;6.184;2022-09-02T09:48:27;98667.59;;;25.02;100.00
50123;BME280;36021;48.670;6.184;2022-09-02T09:53:30;98664.78;;;25.23;100.00
50123;BME280;36021;48.670;6.184;2022-09-02T10:01:25;98650.72;;;25.48;100.00
50123;BME280;36021;48.670;6.184;2022-09-02T10:04:00;98644.31;;;25.58;100.00
50123;BME280;36021;48.670;6.184;2022-09-02T10:08:58;98645.88;;;25.76;100.00
50123;BME280;36021;48.670;6.184;2022-09-02T10:11:32;98632.19;;;25.71;100.00
50123;BME280;36021;48.670;6.184;2022-09-02T10:19:26;98631.38;;;25.85;100.00
50123;BME280;36021;48.670;6.184;2022-09-02T10:38:42;98619.19;;;26.27;100.00
50123;BME280;36021;48.670;6.184;2022-09-02T10:41:20;98623.50;;;26.56;100.00
50123;BME280;36021;48.670;6.184;2022-09-02T10:57:20;98610.13;;;27.26;100.00
50123;BME280;36021;48.670;6.184;2022-09-02T11:05:26;98603.00;;;27.59;100.00
50123;BME280;36021;48.670;6.184;2022-09-02T11:08:12;98601.22;;;27.75;100.00
50123;BME280;36021;48.670;6.184;2022-09-02T11:11:10;98609.41;;;28.11;100.00
50123;BME280;36021;48.670;6.184;2022-09-02T11:16:21;98601.38;;;28.70;100.00
50123;BME280;36021;48.670;6.184;2022-09-02T11:19:05;98605.97;;;28.90;100.00
50123;BME280;36021;48.670;6.184;2022-09-02T11:21:58;98601.09;;;29.18;100.00
50123;BME280;36021;48.670;6.184;2022-09-02T11:30:08;98602.72;;;32.77;81.03
50123;BME280;36021;48.670;6.184;2022-09-02T11:35:23;98587.41;;;36.91;67.51
50123;BME280;36021;48.670;6.184;2022-09-02T11:38:02;98588.00;;;38.27;61.84
50123;BME280;36021;48.670;6.184;2022-09-02T11:40:38;98583.34;;;40.62;58.29
50123;BME280;36021;48.670;6.184;2022-09-02T11:43:43;98579.25;;;42.11;48.39
50123;BME280;36021;48.670;6.184;2022-09-02T11:49:34;98567.47;;;41.35;49.36
50123;BME280;36021;48.670;6.184;2022-09-02T11:55:05;98564.59;;;44.20;40.61
50123;BME280;36021;48.670;6.184;2022-09-02T11:57:32;98564.44;;;45.24;39.01
50123;BME280;36021;48.670;6.184;2022-09-02T12:02:50;98549.66;;;46.19;33.20
50123;BME280;36021;48.670;6.184;2022-09-02T12:05:45;98543.38;;;46.89;32.74
50123;BME280;36021;48.670;6.184;2022-09-02T12:11:01;98542.78;;;44.43;42.61
50123;BME280;36021;48.670;6.184;2022-09-02T12:13:42;98541.88;;;45.00;36.39
50123;BME280;36021;48.670;6.184;2022-09-02T12:18:43;98526.53;;;44.64;37.03
50123;BME280;36021;48.670;6.184;2022-09-02T12:21:13;98528.25;;;47.88;34.17
50123;BME280;36021;48.670;6.184;2022-09-02T12:31:54;98513.38;;;47.34;33.84
50123;BME280;36021;48.670;6.184;2022-09-02T12:36:59;98504.78;;;44.71;33.25
50123;BME280;36021;48.670;6.184;2022-09-02T12:50:10;98493.72;;;48.60;32.58
50123;BME280;36021;48.670;6.184;2022-09-02T12:52:48;98490.31;;;48.35;27.90
50123;BME280;36021;48.670;6.184;2022-09-02T12:55:33;98487.59;;;49.54;27.32
50123;BME280;36021;48.670;6.184;2022-09-02T12:58:09;98489.38;;;50.29;25.73
50123;BME280;36021;48.670;6.184;2022-09-02T13:31:23;98451.72;;;44.89;37.08
50123;BME280;36021;48.670;6.184;2022-09-02T13:34:09;98460.59;;;46.87;32.14
50123;BME280;36021;48.670;6.184;2022-09-02T13:36:39;98453.25;;;44.66;31.14
50123;BME280;36021;48.670;6.184;2022-09-02T13:39:32;98452.19;;;44.28;36.60
50123;BME280;36021;48.670;6.184;2022-09-02T13:41:57;98448.06;;;45.61;31.52
50123;BME280;36021;48.670;6.184;2022-09-02T13:44:27;98447.25;;;45.42;32.47
50123;BME280;36021;48.670;6.184;2022-09-02T13:47:02;98444.91;;;46.39;30.82
50123;BME280;36021;48.670;6.184;2022-09-02T13:49:34;98449.00;;;46.81;29.81
50123;BME280;36021;48.670;6.184;2022-09-02T13:52:04;98440.25;;;45.93;29.25
50123;BME280;36021;48.670;6.184;2022-09-02T13:54:38;98430.50;;;45.48;32.21
50123;BME280;36021;48.670;6.184;2022-09-02T13:57:10;98424.13;;;45.01;31.73
50123;BME280;36021;48.670;6.184;2022-09-02T13:59:45;98427.59;;;44.29;33.38
50123;BME280;36021;48.670;6.184;2022-09-02T14:02:29;98423.56;;;43.28;33.25
50123;BME280;36021;48.670;6.184;2022-09-02T14:04:58;98429.59;;;43.52;33.47
50123;BME280;36021;48.670;6.184;2022-09-02T14:07:39;98424.94;;;43.04;34.59
50123;BME280;36021;48.670;6.184;2022-09-02T14:10:08;98420.13;;;40.58;39.63
50123;BME280;36021;48.670;6.184;2022-09-02T14:12:42;98425.09;;;40.05;41.78
50123;BME280;36021;48.670;6.184;2022-09-02T14:15:12;98420.66;;;40.62;41.10
50123;BME280;36021;48.670;6.184;2022-09-02T14:17:39;98423.16;;;39.31;42.59
50123;BME280;36021;48.670;6.184;2022-09-02T14:22:36;98412.31;;;40.69;42.79
50123;BME280;36021;48.670;6.184;2022-09-02T14:25:14;98412.25;;;39.61;42.67
50123;BME280;36021;48.670;6.184;2022-09-02T14:28:10;98410.31;;;40.18;41.39
50123;BME280;36021;48.670;6.184;2022-09-02T14:33:26;98402.25;;;38.66;46.27
50123;BME280;36021;48.670;6.184;2022-09-02T14:35:58;98400.75;;;39.05;47.83
50123;BME280;36021;48.670;6.184;2022-09-02T14:38:28;98397.56;;;37.66;50.75
50123;BME280;36021;48.670;6.184;2022-09-02T14:43:47;98398.63;;;37.07;52.40
50123;BME280;36021;48.670;6.184;2022-09-02T14:46:29;98396.75;;;36.29;54.79
50123;BME280;36021;48.670;6.184;2022-09-02T14:49:05;98400.59;;;36.17;56.42
50123;BME280;36021;48.670;6.184;2022-09-02T14:54:03;98393.63;;;35.54;56.57
50123;BME280;36021;48.670;6.184;2022-09-02T14:56:49;98394.47;;;35.73;57.92
50123;BME280;36021;48.670;6.184;2022-09-02T14:59:16;98387.72;;;35.21;58.92
50123;BME280;36021;48.670;6.184;2022-09-02T15:01:46;98387.53;;;35.07;59.96
50123;BME280;36021;48.670;6.184;2022-09-02T15:04:13;98392.09;;;34.46;62.12
50123;BME280;36021;48.670;6.184;2022-09-02T15:06:41;98406.78;;;34.97;61.78
50123;BME280;36021;48.670;6.184;2022-09-02T15:09:07;98403.13;;;34.96;60.42
50123;BME280;36021;48.670;6.184;2022-09-02T15:11:33;98393.84;;;34.74;60.92
50123;BME280;36021;48.670;6.184;2022-09-02T15:14:00;98400.00;;;34.64;62.03
50123;BME280;36021;48.670;6.184;2022-09-02T15:16:26;98402.66;;;34.58;62.17
50123;BME280;36021;48.670;6.184;2022-09-02T15:18:53;98397.72;;;34.19;64.41
50123;BME280;36021;48.670;6.184;2022-09-02T15:21:19;98397.25;;;33.98;65.73
50123;BME280;36021;48.670;6.184;2022-09-02T15:23:46;98395.44;;;33.48;67.81
50123;BME280;36021;48.670;6.184;2022-09-02T15:26:15;98400.28;;;33.05;68.98
50123;BME280;36021;48.670;6.184;2022-09-02T15:28:42;98396.47;;;33.20;69.83
50123;BME280;36021;48.670;6.184;2022-09-02T15:31:10;98396.88;;;32.84;70.28
50123;BME280;36021;48.670;6.184;2022-09-02T15:33:36;98396.84;;;33.10;69.21